Athena — 9HUA8 — position and weather

sailwx.info

Track history (hours):
 
Tides and Currents Weather Stations Pressure Air Temp Water Temp Dewpoint Dewpoint Depression Visibility Wind Speed Wind Dir Waves Ship Positions

Athena

Last reported at 2017-Nov-08 18:15 UTC. Time now 2017-Nov-20 18:57 UTC.
Position N 38°01' E 022°50'.
Warning: this ship's position is 12 days out of date.

Length 60 m; draft 3 m.

Type: Passenger vessel. MMSI: 256424000.

Date/timePositionNaut miles runAvg speedWind from/ knotsBaromVisibWave heightAir tempDewpointWater temp
2017-Nov-08 18:15N 38°01' E 022°50'311.4
2017-Nov-08 18:00N 37°60' E 022°53'5 9.8
2017-Nov-08 17:30N 37°57' E 022°58'3 5.9
2017-Nov-08 17:00N 37°55' E 023°01'5 9.8
2017-Nov-08 16:30N 37°53' E 023°07'611.6
2017-Nov-08 16:00N 37°52' E 023°14'611.6
2017-Nov-08 15:30N 37°51' E 023°21'611.6
2017-Nov-08 15:00N 37°50' E 023°28'510.4
2017-Nov-08 14:30N 37°53' E 023°34'5 9.1
2017-Nov-08 14:00N 37°56' E 023°38'1 0.9
2017-Nov-08 13:25N 37°56' E 023°38'0 0.0
2017-Nov-08 12:58N 37°56' E 023°38'0 0.0
2017-Nov-08 12:28N 37°56' E 023°38'0 0.0
2017-Nov-08 11:58N 37°56' E 023°38'0 0.0
2017-Nov-08 11:28N 37°56' E 023°38'0 0.0
2017-Nov-08 10:58N 37°56' E 023°38'0 0.0
2017-Nov-08 10:28N 37°56' E 023°38'0 0.0
2017-Nov-08 09:58N 37°56' E 023°38'  
Track history (hours):
 
Tides and Currents Weather Stations Pressure Air Temp Water Temp Dewpoint Dewpoint Depression Visibility Wind Speed Wind Dir Waves Ship Positions

Athena

Last reported at 2017-Nov-08 18:15 UTC. Time now 2017-Nov-20 18:57 UTC.
Position N 38°01' E 022°50'.
Warning: this ship's position is 12 days out of date.

Length 60 m; draft 3 m.

Type: Passenger vessel. MMSI: 256424000.

Date/timePositionNaut miles runAvg speedWind from/ knotsBaromVisibWave heightAir tempDewpointWater temp
2017-Nov-08 18:15N 38°01' E 022°50'311.4
2017-Nov-08 18:00N 37°60' E 022°53'5 9.8
2017-Nov-08 17:30N 37°57' E 022°58'3 5.9
2017-Nov-08 17:00N 37°55' E 023°01'5 9.8
2017-Nov-08 16:30N 37°53' E 023°07'611.6
2017-Nov-08 16:00N 37°52' E 023°14'611.6
2017-Nov-08 15:30N 37°51' E 023°21'611.6
2017-Nov-08 15:00N 37°50' E 023°28'510.4
2017-Nov-08 14:30N 37°53' E 023°34'5 9.1
2017-Nov-08 14:00N 37°56' E 023°38'1 0.9
2017-Nov-08 13:25N 37°56' E 023°38'0 0.0
2017-Nov-08 12:58N 37°56' E 023°38'0 0.0
2017-Nov-08 12:28N 37°56' E 023°38'0 0.0
2017-Nov-08 11:58N 37°56' E 023°38'0 0.0
2017-Nov-08 11:28N 37°56' E 023°38'0 0.0
2017-Nov-08 10:58N 37°56' E 023°38'0 0.0
2017-Nov-08 10:28N 37°56' E 023°38'0 0.0
2017-Nov-08 09:58N 37°56' E 023°38'  

Dump ship's entire track history